Time;durP1;ratioP1;P1;durP2;ratioP2;P2;SDS_P1;SDS_P2;PMS_P1;PMS_P2;Temp;Humidity;BMP_temperature;BMP_pressure;BME280_temperature;BME280_humidity;BME280_pressure;Samples;Min_cycle;Max_cycle;Signal;HPM_P1;HPM_P2
2023/12/30 00:00:17;;;;;;;5.35;1.90;;;;;;;7.91;100.00;100924.97;5089883;28;20308;-36
2023/12/30 00:02:43;;;;;;;8.02;2.38;;;;;;;7.90;100.00;100934.03;5090500;28;20024;-36
2023/12/30 00:05:08;;;;;;;8.23;2.63;;;;;;;7.85;100.00;100931.97;5089751;28;20074;-36
2023/12/30 00:07:34;;;;;;;9.15;2.53;;;;;;;7.86;100.00;100933.66;5081031;28;20020;-36
2023/12/30 00:09:59;;;;;;;7.57;2.13;;;;;;;7.83;100.00;100944.03;5076845;28;20029;-36
2023/12/30 00:12:24;;;;;;;9.20;2.03;;;;;;;7.83;100.00;100950.22;5076484;28;20028;-36
2023/12/30 00:14:50;;;;;;;7.17;1.70;;;;;;;7.82;100.00;100942.38;5076155;28;20025;-36
2023/12/30 00:17:15;;;;;;;8.57;2.00;;;;;;;7.78;100.00;100944.66;5076194;28;20025;-36
2023/12/30 00:19:44;;;;;;;7.50;1.80;;;;;;;7.73;100.00;100942.59;5076117;28;20032;-36
2023/12/30 00:22:10;;;;;;;7.53;1.92;;;;;;;7.68;100.00;100946.94;5075777;28;20103;-36
2023/12/30 00:24:36;;;;;;;7.78;1.63;;;;;;;7.74;100.00;100956.88;5076276;28;20056;-36
2023/12/30 00:27:01;;;;;;;5.03;1.83;;;;;;;7.69;100.00;100970.13;5076570;28;20032;-36
2023/12/30 00:29:26;;;;;;;5.47;1.70;;;;;;;7.66;100.00;100965.16;5075998;28;20024;-36
2023/12/30 00:31:52;;;;;;;7.03;1.97;;;;;;;7.72;100.00;100975.09;5076182;28;20389;-36
2023/12/30 00:34:17;;;;;;;6.50;2.37;;;;;;;7.69;100.00;100980.91;5076117;28;20332;-36
2023/12/30 00:36:43;;;;;;;5.70;1.43;;;;;;;7.68;100.00;100980.06;5075444;28;20028;-36
2023/12/30 00:39:09;;;;;;;6.18;1.75;;;;;;;7.66;100.00;100989.38;5075695;28;20415;-36
2023/12/30 00:41:35;;;;;;;8.43;1.95;;;;;;;7.63;100.00;100976.34;5075974;28;20020;-36
2023/12/30 00:44:00;;;;;;;7.07;2.07;;;;;;;7.62;100.00;100986.28;5075958;28;20047;-36
2023/12/30 00:46:26;;;;;;;11.47;2.30;;;;;;;7.62;100.00;100982.78;5075656;28;20103;-36
2023/12/30 00:48:51;;;;;;;7.33;1.60;;;;;;;7.60;100.00;100988.34;5076173;28;20024;-36
2023/12/30 00:51:17;;;;;;;6.85;1.83;;;;;;;7.52;100.00;100977.81;5075611;28;20032;-36
2023/12/30 00:53:42;;;;;;;7.50;1.90;;;;;;;7.53;100.00;100990.22;5075140;28;20020;-36
2023/12/30 00:56:08;;;;;;;7.37;1.70;;;;;;;7.52;100.00;100995.81;5075627;28;20098;-36
2023/12/30 00:58:33;;;;;;;9.27;2.15;;;;;;;7.49;100.00;101003.25;5075070;28;20056;-36
2023/12/30 01:00:59;;;;;;;5.25;1.70;;;;;;;7.47;100.00;101002.66;5075021;28;20059;-36
2023/12/30 01:03:25;;;;;;;5.60;1.50;;;;;;;7.44;100.00;101007.59;5075245;28;20032;-36
2023/12/30 01:05:52;;;;;;;7.20;2.03;;;;;;;7.46;100.00;101010.91;5075747;28;20033;-36
2023/12/30 01:08:17;;;;;;;6.72;1.77;;;;;;;7.32;100.00;100996.66;5074843;28;20033;-36
2023/12/30 01:10:43;;;;;;;4.75;1.42;;;;;;;7.39;100.00;101008.22;5075489;28;20032;-36
2023/12/30 01:13:09;;;;;;;4.03;1.50;;;;;;;7.36;100.00;101014.00;5074840;28;20036;-36
2023/12/30 01:15:35;;;;;;;6.75;1.55;;;;;;;7.28;100.00;101005.31;5075859;28;20107;-36
2023/12/30 01:18:02;;;;;;;7.10;2.28;;;;;;;7.34;100.00;101016.09;5074601;28;20393;-36
2023/12/30 01:20:27;;;;;;;6.40;1.80;;;;;;;7.35;100.00;101017.72;5074614;28;20028;-36
2023/12/30 01:22:52;;;;;;;7.20;1.60;;;;;;;7.22;100.00;101005.13;5075729;28;20033;-36
2023/12/30 01:25:18;;;;;;;7.13;1.90;;;;;;;7.27;100.00;101012.56;5074878;28;20476;-36
2023/12/30 01:27:43;;;;;;;5.97;1.70;;;;;;;7.34;100.00;101031.41;5074895;28;20077;-36
2023/12/30 01:30:09;;;;;;;8.13;1.90;;;;;;;7.32;100.00;101031.63;5075023;28;20494;-36
2023/12/30 01:32:34;;;;;;;6.15;1.52;;;;;;;7.33;100.00;101037.81;5075055;28;20024;-36
2023/12/30 01:34:59;;;;;;;12.77;2.23;;;;;;;7.30;100.00;101036.34;5074847;28;20404;-36
2023/12/30 01:37:25;;;;;;;6.53;1.60;;;;;;;7.31;100.00;101038.00;5074362;28;20385;-36
2023/12/30 01:39:51;;;;;;;8.73;2.73;;;;;;;7.31;100.00;101040.69;5074517;28;20039;-36
2023/12/30 01:42:17;;;;;;;7.30;1.77;;;;;;;7.25;100.00;101033.44;5074528;28;20264;-36
2023/12/30 01:44:42;;;;;;;9.77;2.08;;;;;;;7.21;100.00;101021.44;5074710;28;20036;-36
2023/12/30 01:47:08;;;;;;;8.83;2.10;;;;;;;7.28;100.00;101027.69;5074950;28;20062;-36
2023/12/30 01:49:34;;;;;;;9.57;1.98;;;;;;;7.20;100.00;101023.31;5074673;28;20101;-36
2023/12/30 01:52:00;;;;;;;6.45;2.03;;;;;;;7.29;100.00;101040.09;5074598;28;20035;-36
2023/12/30 01:54:26;;;;;;;7.80;2.03;;;;;;;7.25;100.00;101049.59;5074839;28;20085;-36
2023/12/30 01:56:52;;;;;;;9.02;2.08;;;;;;;7.26;100.00;101045.84;5074206;28;20057;-36
2023/12/30 01:59:18;;;;;;;7.25;2.00;;;;;;;7.26;100.00;101059.31;5074411;28;20056;-36
2023/12/30 02:01:47;;;;;;;9.30;2.58;;;;;;;7.25;100.00;101062.22;5074682;28;20039;-36
2023/12/30 02:04:12;;;;;;;8.45;1.75;;;;;;;7.25;100.00;101070.28;5073750;28;20039;-36
2023/12/30 02:06:39;;;;;;;10.02;1.83;;;;;;;7.17;100.00;101052.47;5074327;28;20032;-36
2023/12/30 02:09:05;;;;;;;10.50;2.20;;;;;;;7.20;100.00;101060.97;5074788;28;20035;-36
2023/12/30 02:11:31;;;;;;;9.82;2.40;;;;;;;7.16;100.00;101061.56;5073997;28;20024;-36
2023/12/30 02:13:57;;;;;;;7.25;1.73;;;;;;;7.23;100.00;101067.81;5073939;28;20039;-36
2023/12/30 02:16:22;;;;;;;10.18;2.33;;;;;;;7.22;100.00;101066.97;5073902;28;20379;-36
2023/12/30 02:18:47;;;;;;;8.43;1.80;;;;;;;7.21;100.00;101069.84;5073652;28;20050;-36
2023/12/30 02:21:13;;;;;;;8.70;2.30;;;;;;;7.23;100.00;101075.88;5074129;28;20078;-36
2023/12/30 02:23:38;;;;;;;8.23;2.20;;;;;;;7.22;100.00;101074.19;5074109;28;20052;-37
2023/12/30 02:26:06;;;;;;;5.60;1.77;;;;;;;7.07;100.00;101054.72;5074378;28;20029;-36
2023/12/30 02:28:32;;;;;;;11.75;2.90;;;;;;;7.15;100.00;101067.97;5073688;28;20032;-36
2023/12/30 02:30:57;;;;;;;7.80;1.63;;;;;;;7.16;100.00;101072.31;5073793;28;20479;-36
2023/12/30 02:33:22;;;;;;;7.27;1.70;;;;;;;7.13;100.00;101078.94;5073462;28;20512;-36
2023/12/30 02:35:48;;;;;;;8.73;1.63;;;;;;;7.16;100.00;101080.38;5073861;28;20024;-36
2023/12/30 02:38:13;;;;;;;9.60;2.30;;;;;;;7.14;100.00;101091.34;5074171;28;20068;-36
2023/12/30 02:40:38;;;;;;;8.67;2.00;;;;;;;7.13;100.00;101092.41;5073631;28;20028;-36
2023/12/30 02:43:04;;;;;;;9.43;2.47;;;;;;;7.11;100.00;101085.56;5073283;28;20029;-36
2023/12/30 02:45:29;;;;;;;8.40;2.50;;;;;;;7.10;100.00;101086.59;5072664;28;20024;-36
2023/12/30 02:47:54;;;;;;;8.90;1.70;;;;;;;7.12;100.00;101092.56;5073789;28;20024;-36
2023/12/30 02:50:20;;;;;;;7.27;2.23;;;;;;;7.10;100.00;101094.66;5073517;28;20508;-36
2023/12/30 02:52:45;;;;;;;9.43;2.53;;;;;;;7.09;100.00;101087.63;5073504;28;20472;-36
2023/12/30 02:55:11;;;;;;;7.53;2.00;;;;;;;7.08;100.00;101085.97;5073367;28;20086;-36
2023/12/30 02:57:36;;;;;;;6.33;2.03;;;;;;;7.11;100.00;101093.63;5074000;28;20053;-36
2023/12/30 03:00:02;;;;;;;10.43;2.85;;;;;;;7.10;100.00;101098.16;5073380;28;20025;-36
2023/12/30 03:02:27;;;;;;;8.32;2.10;;;;;;;7.12;100.00;101095.28;5073022;28;20033;-36
2023/12/30 03:04:52;;;;;;;6.50;2.00;;;;;;;7.13;100.00;101099.63;5072920;28;20037;-36
2023/12/30 03:07:18;;;;;;;9.13;2.83;;;;;;;7.13;100.00;101095.09;5073353;28;20027;-36
2023/12/30 03:09:43;;;;;;;7.97;2.00;;;;;;;7.12;100.00;101095.28;5073031;28;20281;-36
2023/12/30 03:12:09;;;;;;;7.30;2.30;;;;;;;7.14;100.00;101103.97;5073608;28;20423;-36
2023/12/30 03:14:34;;;;;;;10.02;3.53;;;;;;;7.13;100.00;101091.56;5073259;28;20028;-36
2023/12/30 03:17:00;;;;;;;10.93;3.22;;;;;;;7.01;100.00;101079.72;5073705;28;20032;-36
2023/12/30 03:19:25;;;;;;;13.17;3.00;;;;;;;7.11;100.00;101107.88;5072892;28;20029;-36
2023/12/30 03:21:50;;;;;;;11.07;3.13;;;;;;;7.08;100.00;101102.94;5073349;28;20021;-36
2023/12/30 03:24:16;;;;;;;14.33;2.70;;;;;;;7.10;100.00;101108.09;5073121;28;20067;-36
2023/12/30 03:26:41;;;;;;;7.50;2.17;;;;;;;7.05;100.00;101100.63;5073516;28;20032;-36
2023/12/30 03:29:06;;;;;;;9.07;2.47;;;;;;;7.03;100.00;101108.09;5073199;28;20068;-36
2023/12/30 03:31:32;;;;;;;16.10;2.80;;;;;;;7.06;100.00;101104.16;5073504;28;20024;-36
2023/12/30 03:33:57;;;;;;;10.63;2.27;;;;;;;7.04;100.00;101098.16;5072789;28;20025;-36
2023/12/30 03:36:22;;;;;;;8.75;3.15;;;;;;;7.01;100.00;101103.94;5073261;28;20032;-36
2023/12/30 03:38:48;;;;;;;14.17;3.17;;;;;;;6.96;100.00;101099.97;5072813;28;20056;-36
2023/12/30 03:41:14;;;;;;;;;;;;;;;6.97;100.00;101098.13;5073765;28;20047;-36
2023/12/30 03:43:39;;;;;;;6.00;2.03;;;;;;;6.92;100.00;101109.47;5075963;28;19908;-36
2023/12/30 03:46:05;;;;;;;9.10;2.03;;;;;;;6.90;100.00;101110.72;5077040;28;20036;-36
2023/12/30 03:48:30;;;;;;;9.02;2.72;;;;;;;6.90;100.00;101113.41;5077187;28;20094;-36
2023/12/30 03:50:56;;;;;;;9.57;2.25;;;;;;;6.89;100.00;101119.81;5076711;28;20024;-36
2023/12/30 03:53:21;;;;;;;11.00;2.43;;;;;;;6.88;100.00;101124.38;5076827;28;20025;-36
2023/12/30 03:55:46;;;;;;;9.93;2.93;;;;;;;6.89;100.00;101125.19;5076610;28;20303;-36
2023/12/30 03:58:12;;;;;;;8.97;2.30;;;;;;;6.81;100.00;101104.66;5076513;28;20036;-36
2023/12/30 04:00:37;;;;;;;8.60;1.93;;;;;;;6.85;100.00;101107.78;5076796;28;20037;-36
2023/12/30 04:03:03;;;;;;;11.60;2.53;;;;;;;6.83;100.00;101108.00;5076741;28;20028;-36
2023/12/30 04:05:28;;;;;;;9.95;2.13;;;;;;;6.82;100.00;101113.56;5076397;28;20077;-36
2023/12/30 04:07:53;;;;;;;13.43;2.50;;;;;;;6.81;100.00;101111.91;5076641;28;20025;-36
2023/12/30 04:10:19;;;;;;;8.53;2.30;;;;;;;6.79;100.00;101111.28;5076004;28;20078;-36
2023/12/30 04:12:44;;;;;;;9.63;1.90;;;;;;;6.76;100.00;101117.88;5076001;28;20055;-36
2023/12/30 04:15:10;;;;;;;10.73;2.40;;;;;;;6.76;100.00;101122.44;5076116;28;20025;-36
2023/12/30 04:17:36;;;;;;;12.90;2.67;;;;;;;6.68;100.00;101107.28;5075974;28;20110;-36
2023/12/30 04:20:02;;;;;;;13.20;2.78;;;;;;;6.74;100.00;101116.44;5076903;28;20036;-36
2023/12/30 04:22:28;;;;;;;7.78;2.45;;;;;;;6.66;100.00;101112.88;5076927;28;20032;-36
2023/12/30 04:24:54;;;;;;;11.07;2.72;;;;;;;6.64;100.00;101111.44;5075709;28;20033;-36
2023/12/30 04:27:19;;;;;;;11.35;2.40;;;;;;;6.63;100.00;101102.50;5076219;28;20377;-36
2023/12/30 04:29:45;;;;;;;13.80;2.63;;;;;;;6.67;100.00;101119.06;5075863;28;20028;-36
2023/12/30 04:32:10;;;;;;;10.50;2.20;;;;;;;6.67;100.00;101122.59;5075695;28;20031;-36
2023/12/30 04:34:35;;;;;;;8.13;2.13;;;;;;;6.68;100.00;101115.34;5076168;28;20031;-36
2023/12/30 04:37:01;;;;;;;8.90;2.20;;;;;;;6.62;100.00;101114.28;5076335;28;20028;-36
2023/12/30 04:39:27;;;;;;;11.95;2.00;;;;;;;6.64;100.00;101122.16;5075761;28;20082;-36
2023/12/30 04:41:52;;;;;;;7.33;1.93;;;;;;;6.60;100.00;101120.91;5076077;28;20047;-36
2023/12/30 04:44:17;;;;;;;6.73;2.07;;;;;;;6.59;100.00;101124.63;5075669;28;20051;-36
2023/12/30 04:46:43;;;;;;;9.77;2.73;;;;;;;6.58;100.00;101133.69;5076214;28;20444;-36
2023/12/30 04:49:10;;;;;;;12.10;2.83;;;;;;;6.52;100.00;101132.63;5076093;28;20102;-36
2023/12/30 04:51:36;;;;;;;9.15;2.05;;;;;;;6.50;100.00;101140.06;5076388;28;20103;-36
2023/12/30 04:54:01;;;;;;;12.23;2.10;;;;;;;6.49;100.00;101143.78;5075347;28;20103;-36
2023/12/30 04:56:27;;;;;;;8.67;1.93;;;;;;;6.49;100.00;101135.72;5076409;28;20373;-35
2023/12/30 04:58:52;;;;;;;10.43;2.30;;;;;;;6.48;100.00;101144.78;5075381;28;20336;-36
2023/12/30 05:01:18;;;;;;;8.70;2.10;;;;;;;6.47;100.00;101139.63;5075741;28;20017;-36
2023/12/30 05:03:43;;;;;;;11.33;1.93;;;;;;;6.47;100.00;101147.69;5075825;28;20031;-36
2023/12/30 05:06:21;;;;;;;8.13;1.83;;;;;;;6.37;100.00;101130.06;5075337;28;20753;-36
2023/12/30 05:08:51;;;;;;;7.40;1.67;;;;;;;6.44;100.00;101149.75;5074835;28;20059;-36
2023/12/30 05:11:17;;;;;;;10.48;2.30;;;;;;;6.47;100.00;101145.00;5074894;28;20500;-36
2023/12/30 05:13:43;;;;;;;10.00;2.05;;;;;;;6.41;100.00;101144.75;5074777;28;20112;-36
2023/12/30 05:16:08;;;;;;;13.15;3.70;;;;;;;6.48;100.00;101160.09;5074956;28;20052;-36
2023/12/30 05:18:34;;;;;;;13.37;2.70;;;;;;;6.47;100.00;101161.94;5075302;28;20060;-36
2023/12/30 05:20:59;;;;;;;11.43;2.50;;;;;;;6.40;100.00;101143.09;5075327;28;20251;-36
2023/12/30 05:23:25;;;;;;;7.10;2.45;;;;;;;6.44;100.00;101159.63;5075480;28;20067;-36
2023/12/30 05:25:50;;;;;;;14.30;2.33;;;;;;;6.44;100.00;101157.81;5075453;28;20115;-36
2023/12/30 05:28:15;;;;;;;13.67;3.03;;;;;;;6.38;100.00;101144.31;5075068;28;20035;-36
2023/12/30 05:30:41;;;;;;;10.57;2.10;;;;;;;6.44;100.00;101155.13;5074770;28;20017;-36
2023/12/30 05:33:07;;;;;;;13.60;2.87;;;;;;;6.43;100.00;101158.81;5074761;28;20481;-36
2023/12/30 05:35:33;;;;;;;11.13;2.30;;;;;;;6.41;100.00;101160.03;5074336;28;20534;-36
2023/12/30 05:37:58;;;;;;;8.98;2.15;;;;;;;6.35;100.00;101158.97;5074581;28;20103;-36
2023/12/30 05:40:24;;;;;;;11.67;2.43;;;;;;;6.37;100.00;101164.97;5075175;28;20081;-36
2023/12/30 05:42:49;;;;;;;9.38;2.40;;;;;;;6.30;100.00;101163.28;5074577;28;20032;-36
2023/12/30 05:45:14;;;;;;;17.47;2.40;;;;;;;6.34;100.00;101172.59;5073228;28;20047;-35
2023/12/30 05:47:40;;;;;;;10.77;2.37;;;;;;;6.32;100.00;101174.66;5074732;28;20029;-36
2023/12/30 05:50:06;;;;;;;14.07;3.07;;;;;;;6.30;100.00;101184.75;5074173;28;20366;-36
2023/12/30 05:52:31;;;;;;;13.15;2.38;;;;;;;6.26;100.00;101181.63;5074918;28;20047;-36
2023/12/30 05:54:57;;;;;;;10.03;2.07;;;;;;;6.24;100.00;101186.34;5074056;28;20453;-36
2023/12/30 05:57:22;;;;;;;11.83;2.80;;;;;;;6.17;100.00;101180.09;5073967;28;20464;-36
2023/12/30 05:59:47;;;;;;;11.63;3.00;;;;;;;6.21;100.00;101186.75;5074176;28;20036;-36
2023/12/30 06:02:13;;;;;;;16.30;2.90;;;;;;;6.22;100.00;101185.72;5074254;28;20028;-36
2023/12/30 06:04:40;;;;;;;;;;;;;;;6.25;100.00;101182.66;5073930;28;20119;-36
2023/12/30 06:07:05;;;;;;;12.95;2.88;;;;;;;6.21;100.00;101188.63;5074328;28;19974;-36
2023/12/30 06:09:30;;;;;;;8.57;2.60;;;;;;;6.18;100.00;101181.75;5074000;28;20106;-36
2023/12/30 06:11:56;;;;;;;12.53;2.67;;;;;;;6.19;100.00;101191.47;5074580;28;20035;-36
2023/12/30 06:14:21;;;;;;;14.87;3.40;;;;;;;6.18;100.00;101192.50;5073908;28;20028;-36
2023/12/30 06:16:46;;;;;;;10.70;2.30;;;;;;;6.10;100.00;101174.69;5073607;28;20032;-36
2023/12/30 06:19:13;;;;;;;10.43;2.50;;;;;;;6.14;100.00;101184.00;5073663;28;20024;-36
2023/12/30 06:21:38;;;;;;;10.40;2.17;;;;;;;6.13;100.00;101179.66;5074376;28;20024;-36
2023/12/30 06:24:04;;;;;;;9.85;2.45;;;;;;;6.12;100.00;101193.28;5073749;28;20033;-36
2023/12/30 06:26:29;;;;;;;10.02;2.40;;;;;;;6.08;100.00;101181.25;5073758;28;20046;-36
2023/12/30 06:28:54;;;;;;;16.70;3.43;;;;;;;6.06;100.00;101184.16;5073744;28;20025;-36
2023/12/30 06:31:20;;;;;;;11.43;2.90;;;;;;;6.11;100.00;101202.38;5074082;28;20099;-36
2023/12/30 06:33:45;;;;;;;11.30;2.83;;;;;;;6.13;100.00;101208.38;5074219;28;20029;-36
2023/12/30 06:36:19;;;;;;;9.47;1.97;;;;;;;6.11;100.00;101216.63;5073866;28;20024;-36
2023/12/30 06:38:45;;;;;;;12.23;2.50;;;;;;;6.12;100.00;101220.13;5073648;28;20035;-36
2023/12/30 06:41:10;;;;;;;14.93;2.60;;;;;;;6.12;100.00;101218.28;5073936;28;20381;-36
2023/12/30 06:43:35;;;;;;;8.13;2.33;;;;;;;6.12;100.00;101214.75;5073663;28;20028;-36
2023/12/30 06:46:04;;;;;;;11.83;2.70;;;;;;;6.10;100.00;101216.78;5073656;28;20107;-36
2023/12/30 06:48:29;;;;;;;13.40;2.70;;;;;;;6.09;100.00;101215.13;5073499;28;20075;-36
2023/12/30 06:50:56;;;;;;;12.47;2.50;;;;;;;6.05;100.00;101209.34;5073295;28;20063;-38
2023/12/30 06:53:22;;;;;;;14.70;2.60;;;;;;;6.06;100.00;101207.47;5074263;28;20462;-36
2023/12/30 06:55:47;;;;;;;13.25;2.20;;;;;;;6.03;100.00;101210.53;5073714;28;20135;-36
2023/12/30 06:58:12;;;;;;;11.77;2.47;;;;;;;6.05;100.00;101216.53;5073429;28;20112;-36
2023/12/30 07:00:38;;;;;;;15.10;2.87;;;;;;;6.04;100.00;101213.03;5073986;28;20111;-36
2023/12/30 07:03:03;;;;;;;8.27;2.25;;;;;;;6.03;100.00;101211.38;5073999;28;20172;-36
2023/12/30 07:05:35;;;;;;;8.60;2.30;;;;;;;6.03;100.00;101214.06;5073371;28;20050;-36
2023/12/30 07:08:00;;;;;;;14.18;3.22;;;;;;;5.96;100.00;101212.34;5073324;28;20025;-36
2023/12/30 07:10:26;;;;;;;11.53;3.00;;;;;;;6.02;100.00;101220.44;5073132;28;20515;-36
2023/12/30 07:12:51;;;;;;;12.07;3.47;;;;;;;6.01;100.00;101212.59;5073068;28;20035;-36
2023/12/30 07:15:16;;;;;;;12.40;2.47;;;;;;;6.03;100.00;101215.91;5073270;28;20028;-36
2023/12/30 07:17:42;;;;;;;11.03;2.33;;;;;;;6.05;100.00;101224.59;5075794;28;20029;-36
2023/12/30 07:20:07;;;;;;;13.00;2.67;;;;;;;5.99;100.00;101209.25;5077287;28;20060;-36
2023/12/30 07:22:33;;;;;;;10.25;2.70;;;;;;;6.02;100.00;101215.09;5077835;28;20027;-36
2023/12/30 07:24:59;;;;;;;9.60;1.87;;;;;;;6.05;100.00;101224.59;5077473;28;20468;-36
2023/12/30 07:27:24;;;;;;;9.02;2.08;;;;;;;5.96;100.00;101210.50;5077975;28;20028;-36
2023/12/30 07:29:50;;;;;;;10.53;2.53;;;;;;;6.03;100.00;101216.75;5077448;28;20031;-36
2023/12/30 07:32:15;;;;;;;13.30;2.10;;;;;;;6.03;100.00;101218.59;5077364;28;20062;-36
2023/12/30 07:34:40;;;;;;;10.17;2.67;;;;;;;6.02;100.00;101225.81;5076898;28;20020;-36
2023/12/30 07:37:06;;;;;;;12.98;2.47;;;;;;;6.02;100.00;101233.03;5076650;28;20028;-36
2023/12/30 07:39:32;;;;;;;11.97;2.13;;;;;;;6.00;100.00;101224.34;5076853;28;20029;-36
2023/12/30 07:41:58;;;;;;;11.70;2.20;;;;;;;5.98;100.00;101229.09;5076858;28;20078;-36
2023/12/30 07:44:23;;;;;;;10.75;2.00;;;;;;;5.99;100.00;101236.09;5076830;28;20024;-36
2023/12/30 07:46:48;;;;;;;9.40;1.90;;;;;;;6.00;100.00;101243.13;5077077;28;20035;-36
2023/12/30 07:49:17;;;;;;;10.33;2.10;;;;;;;6.01;100.00;101239.44;5076673;28;20453;-36
2023/12/30 07:51:42;;;;;;;10.40;2.20;;;;;;;6.00;100.00;101245.81;5077170;28;20400;-36
2023/12/30 07:54:07;;;;;;;12.45;1.95;;;;;;;5.94;100.00;101234.00;5076633;28;20031;-36
2023/12/30 07:56:33;;;;;;;10.60;2.43;;;;;;;5.94;100.00;101236.69;5077067;28;20174;-36
2023/12/30 07:58:59;;;;;;;12.20;2.40;;;;;;;5.84;100.00;101231.59;5077261;28;20357;-35
2023/12/30 08:01:24;;;;;;;15.38;2.60;;;;;;;6.05;100.00;101267.56;5076521;28;20028;-36
2023/12/30 08:03:49;;;;;;;10.27;2.03;;;;;;;6.00;100.00;101264.59;5076164;28;20112;-36
2023/12/30 08:06:15;;;;;;;18.47;3.90;;;;;;;5.99;100.00;101246.84;5076491;28;20039;-36
2023/12/30 08:08:40;;;;;;;13.23;2.53;;;;;;;5.96;100.00;101242.69;5076073;28;20028;-36
2023/12/30 08:11:05;;;;;;;12.30;2.43;;;;;;;6.03;100.00;101254.31;5076339;28;20033;-36
2023/12/30 08:13:31;;;;;;;8.27;2.10;;;;;;;6.07;100.00;101276.25;5076264;28;20040;-36
2023/12/30 08:15:57;;;;;;;10.17;2.17;;;;;;;6.14;100.00;101275.28;5076937;28;20025;-36
2023/12/30 08:18:22;;;;;;;10.70;2.60;;;;;;;6.13;100.00;101256.69;5076695;28;20270;-36
2023/12/30 08:20:49;;;;;;;13.80;2.27;;;;;;;6.12;100.00;101263.91;5076725;28;20032;-36
2023/12/30 08:23:14;;;;;;;12.25;2.65;;;;;;;6.20;100.00;101265.66;5076045;28;20024;-36
2023/12/30 08:25:40;;;;;;;7.85;2.22;;;;;;;6.18;100.00;101263.16;5076337;28;20047;-36
2023/12/30 08:28:05;;;;;;;9.07;2.23;;;;;;;6.26;100.00;101272.13;5075626;28;20468;-36
2023/12/30 08:30:30;;;;;;;11.53;2.90;;;;;;;6.28;100.00;101273.56;5076044;28;20476;-36
2023/12/30 08:32:56;;;;;;;7.28;1.90;;;;;;;6.30;100.00;101282.28;5076262;28;20469;-36
2023/12/30 08:35:22;;;;;;;9.88;2.15;;;;;;;6.31;100.00;101277.75;5075799;28;20028;-36
2023/12/30 08:37:47;;;;;;;10.60;2.30;;;;;;;6.29;100.00;101263.66;5075953;28;20028;-36
2023/12/30 08:40:14;;;;;;;12.57;2.80;;;;;;;6.37;100.00;101271.59;5075505;28;20271;-36
2023/12/30 08:42:44;;;;;;;15.10;2.88;;;;;;;6.38;100.00;101268.69;5075760;28;20029;-36
2023/12/30 08:45:17;;;;;;;13.98;2.85;;;;;;;6.34;100.00;101253.16;5075398;28;20024;-36
2023/12/30 08:47:44;;;;;;;11.32;2.30;;;;;;;6.42;100.00;101266.47;5076506;28;20106;-36
2023/12/30 08:50:10;;;;;;;6.90;1.83;;;;;;;6.43;100.00;101258.22;5075605;28;20445;-36
2023/12/30 08:52:36;;;;;;;12.20;2.65;;;;;;;6.44;100.00;101265.28;5075945;28;20059;-36
2023/12/30 08:55:01;;;;;;;13.10;2.47;;;;;;;6.47;100.00;101266.72;5075754;28;20028;-36
2023/12/30 08:57:26;;;;;;;6.97;2.40;;;;;;;6.50;100.00;101268.19;5075835;28;20373;-36
2023/12/30 08:59:52;;;;;;;10.90;2.60;;;;;;;6.51;100.00;101273.38;5075418;28;20024;-36
2023/12/30 09:02:17;;;;;;;9.90;3.33;;;;;;;6.55;100.00;101279.19;5075392;28;20043;-36
2023/12/30 09:04:42;;;;;;;14.10;3.70;;;;;;;6.51;100.00;101270.69;5075625;28;20035;-35
2023/12/30 09:07:08;;;;;;;12.63;2.90;;;;;;;6.60;100.00;101284.81;5075869;28;20033;-35
2023/12/30 09:09:34;;;;;;;13.25;3.72;;;;;;;6.61;100.00;101278.41;5075234;28;20278;-35
2023/12/30 09:12:00;;;;;;;11.68;3.38;;;;;;;6.64;100.00;101289.63;5076019;28;20029;-36
2023/12/30 09:14:25;;;;;;;6.87;2.53;;;;;;;6.66;100.00;101294.78;5075123;28;20035;-36
2023/12/30 09:16:50;;;;;;;11.20;3.23;;;;;;;6.67;100.00;101307.19;5075029;28;20391;-36
2023/12/30 09:19:16;;;;;;;10.90;2.57;;;;;;;6.71;100.00;101297.72;5075337;28;20035;-36
2023/12/30 09:21:41;;;;;;;13.67;3.07;;;;;;;6.72;100.00;101302.91;5075304;28;20033;-35
2023/12/30 09:24:06;;;;;;;16.47;3.60;;;;;;;6.74;100.00;101302.72;5074884;28;20035;-36
2023/12/30 09:26:32;;;;;;;9.97;2.47;;;;;;;6.76;100.00;101302.50;5075180;28;20052;-36
2023/12/30 09:28:57;;;;;;;9.97;2.77;;;;;;;6.75;100.00;101300.84;5074619;28;20369;-36
2023/12/30 09:31:26;;;;;;;11.40;3.20;;;;;;;6.80;100.00;101310.00;5074804;28;20105;-36
2023/12/30 09:33:52;;;;;;;12.15;2.60;;;;;;;6.82;100.00;101312.47;5074977;28;20024;-36
2023/12/30 09:36:17;;;;;;;11.77;2.93;;;;;;;6.82;100.00;101307.94;5075445;28;20403;-36
2023/12/30 09:38:43;;;;;;;11.73;2.50;;;;;;;6.85;100.00;101314.78;5074637;28;20743;-36
2023/12/30 09:41:08;;;;;;;12.63;2.95;;;;;;;6.87;100.00;101316.25;5073753;28;20025;-36
2023/12/30 09:43:35;;;;;;;12.67;3.10;;;;;;;6.90;100.00;101315.03;5074236;28;20039;-36
2023/12/30 09:46:00;;;;;;;;;;;;;;;6.96;100.00;101319.63;5075224;28;20108;-36
2023/12/30 09:48:26;;;;;;;15.30;3.00;;;;;;;6.97;100.00;101321.28;5074153;28;19947;-36
2023/12/30 09:50:53;;;;;;;11.80;2.78;;;;;;;6.90;100.00;101318.56;5074395;28;20158;-36
2023/12/30 09:53:22;;;;;;;13.25;3.17;;;;;;;6.93;100.00;101310.09;5074874;28;20051;-36
2023/12/30 09:55:51;;;;;;;13.10;3.10;;;;;;;7.06;100.00;101319.28;5074552;28;20080;-36
2023/12/30 09:58:21;;;;;;;18.33;4.85;;;;;;;7.08;100.00;101328.00;5074473;28;20028;-36
2023/12/30 10:00:46;;;;;;;11.80;2.80;;;;;;;7.12;100.00;101329.25;5075042;28;20026;-36
2023/12/30 10:03:13;;;;;;;14.48;3.35;;;;;;;7.12;100.00;101318.50;5073822;28;20536;-36
2023/12/30 10:05:40;;;;;;;11.52;2.85;;;;;;;7.12;100.00;101322.00;5074651;28;20111;-36
2023/12/30 10:08:05;;;;;;;;;;;;;;;7.17;100.00;101313.34;5074714;28;20095;-36
2023/12/30 10:10:49;;;;;;;15.35;3.70;;;;;;;7.14;100.00;101316.44;5074329;28;20349;-36
2023/12/30 10:13:25;;;;;;;16.15;3.35;;;;;;;7.15;100.00;101321.63;5074301;28;20465;-36
2023/12/30 10:15:51;;;;;;;;;;;;;;;7.22;100.00;101325.19;5074577;28;20111;-36
2023/12/30 10:18:16;;;;;;;14.90;3.33;;;;;;;7.15;100.00;101308.19;5073974;28;20463;-36
2023/12/30 10:20:43;;;;;;;11.90;3.30;;;;;;;7.22;100.00;101321.66;5074441;28;20025;-36
2023/12/30 10:23:08;;;;;;;10.55;3.20;;;;;;;7.24;100.00;101327.69;5074096;28;20118;-36
2023/12/30 10:25:34;;;;;;;12.93;3.87;;;;;;;7.27;100.00;101321.06;5074084;28;20059;-36
2023/12/30 10:28:00;;;;;;;10.77;3.90;;;;;;;7.21;100.00;101315.44;5074359;28;20255;-36
2023/12/30 10:30:28;;;;;;;13.40;4.18;;;;;;;7.35;100.00;101329.00;5074521;28;20036;-36
2023/12/30 10:33:06;;;;;;;13.13;3.85;;;;;;;7.39;100.00;101336.47;5074590;28;20029;-36
2023/12/30 10:35:31;;;;;;;13.35;3.95;;;;;;;7.38;100.00;101323.22;5073942;28;20067;-36
2023/12/30 10:37:57;;;;;;;15.10;4.03;;;;;;;7.46;100.00;101331.13;5073779;28;20472;-36
2023/12/30 10:40:23;;;;;;;16.38;4.07;;;;;;;7.49;100.00;101330.72;5073622;28;20025;-36
2023/12/30 10:42:48;;;;;;;10.83;4.37;;;;;;;7.53;100.00;101331.16;5073920;28;20028;-36
2023/12/30 10:45:14;;;;;;;12.27;3.28;;;;;;;7.57;100.00;101338.66;5073277;28;20024;-36
2023/12/30 10:47:42;;;;;;;17.17;3.60;;;;;;;7.61;100.00;101334.53;5072411;28;20107;-36
2023/12/30 10:50:09;;;;;;;13.80;4.43;;;;;;;7.63;100.00;101326.25;5073794;28;20032;-36
2023/12/30 10:52:40;;;;;;;15.82;4.22;;;;;;;7.56;100.00;101306.53;5073311;28;20078;-36
2023/12/30 10:55:10;;;;;;;13.50;3.90;;;;;;;7.70;100.00;101330.63;5073179;28;20047;-36
2023/12/30 10:57:37;;;;;;;12.73;4.40;;;;;;;7.74;100.00;101318.41;5073472;28;20071;-36
2023/12/30 11:00:09;;;;;;;10.48;3.75;;;;;;;7.72;100.00;101303.53;5073395;28;20024;-36
2023/12/30 11:02:39;;;;;;;16.17;4.28;;;;;;;7.80;100.00;101310.56;5073432;28;20064;-36
2023/12/30 11:05:11;;;;;;;13.68;4.00;;;;;;;7.85;100.00;101306.25;5073118;28;20033;-36
2023/12/30 11:07:37;;;;;;;12.40;3.92;;;;;;;7.82;100.00;101290.50;5073007;28;20115;-36
2023/12/30 11:10:15;;;;;;;16.85;4.50;;;;;;;7.91;100.00;101296.56;5074103;28;20119;-36
2023/12/30 11:12:40;;;;;;;16.85;4.25;;;;;;;7.92;100.00;101300.91;5073090;28;20052;-36
2023/12/30 11:15:30;;;;;;;17.98;4.07;;;;;;;7.95;100.00;101304.03;5073520;28;20040;-36